createdAt,value
2018-10-11T00:19:50.068Z,15.60
2018-10-11T00:22:18.953Z,13.60
2018-10-11T00:24:48.415Z,13.50
2018-10-11T00:27:21.183Z,13.50
2018-10-11T00:30:00.923Z,13.60
2018-10-11T00:32:43.177Z,13.60
2018-10-11T00:42:17.847Z,13.60
2018-10-11T00:48:25.542Z,13.50
2018-10-11T01:01:07.023Z,13.40
2018-10-11T01:17:14.510Z,13.40
2018-10-11T01:20:04.270Z,13.40
2018-10-11T01:23:04.076Z,13.40
2018-10-11T01:25:32.617Z,13.30
2018-10-11T01:28:20.060Z,13.30
2018-10-11T01:30:55.627Z,13.30
2018-10-11T01:33:24.087Z,13.30
2018-10-11T01:35:52.428Z,13.30
2018-10-11T01:38:30.811Z,13.40
2018-10-11T01:41:00.352Z,13.40
2018-10-11T01:43:29.364Z,13.30
2018-10-11T01:46:01.970Z,13.30
2018-10-11T01:49:00.758Z,13.30
2018-10-11T01:51:40.548Z,13.30
2018-10-11T01:57:35.363Z,13.30
2018-10-11T03:49:26.368Z,13.20
2018-10-11T04:05:22.449Z,12.60
2018-10-11T04:08:12.024Z,12.60
2018-10-11T04:11:06.184Z,12.60
2018-10-11T04:16:43.993Z,12.70
2018-10-11T04:19:14.458Z,12.70
2018-10-11T04:21:44.517Z,12.70
2018-10-11T04:24:16.238Z,12.70
2018-10-11T04:26:52.126Z,12.70
2018-10-11T04:29:33.104Z,12.70
2018-10-11T04:32:12.163Z,12.80
2018-10-11T04:34:51.984Z,12.80
2018-10-11T04:37:29.920Z,12.70
2018-10-11T04:57:09.518Z,12.70
2018-10-11T04:59:39.206Z,12.60
2018-10-11T05:02:07.854Z,12.60
2018-10-11T05:04:43.492Z,12.60
2018-10-11T05:07:14.074Z,12.60
2018-10-11T05:10:01.116Z,12.60
2018-10-11T05:12:54.687Z,12.60
2018-10-11T05:15:24.445Z,12.60
2018-10-11T05:17:59.674Z,12.60
2018-10-11T05:20:52.777Z,12.60
2018-10-11T05:23:31.430Z,12.60
2018-10-11T05:26:19.590Z,12.50
2018-10-11T05:32:26.111Z,12.50
2018-10-11T05:38:08.419Z,12.50
2018-10-11T05:41:15.865Z,12.50
2018-10-11T05:57:19.293Z,12.50
2018-10-11T05:59:47.689Z,12.30
2018-10-11T06:02:16.112Z,12.20
2018-10-11T06:04:44.590Z,12.20
2018-10-11T06:07:12.966Z,12.30
2018-10-11T06:09:41.321Z,12.40
2018-10-11T06:14:47.792Z,12.50
2018-10-11T06:17:16.159Z,12.60
2018-10-11T06:19:44.486Z,12.70
2018-10-11T06:22:12.975Z,12.80
2018-10-11T06:24:41.382Z,12.80
2018-10-11T06:27:20.935Z,12.90
2018-10-11T06:29:49.271Z,12.90
2018-10-11T06:32:17.589Z,12.90
2018-10-11T06:34:45.815Z,12.90
2018-10-11T06:37:15.748Z,13.00
2018-10-11T06:39:43.977Z,13.00
2018-10-11T06:42:12.230Z,13.00
2018-10-11T06:44:40.504Z,13.00
2018-10-11T06:47:08.836Z,13.00
2018-10-11T06:49:37.129Z,13.10
2018-10-11T06:52:05.588Z,13.10
2018-10-11T06:54:37.451Z,13.10
2018-10-11T06:57:06.068Z,13.20
2018-10-11T06:59:34.369Z,13.20
2018-10-11T07:02:02.780Z,13.20
2018-10-11T07:04:31.054Z,13.20
2018-10-11T07:06:59.275Z,13.30
2018-10-11T07:09:27.510Z,13.30
2018-10-11T07:11:56.035Z,13.40
2018-10-11T07:14:24.338Z,13.40
2018-10-11T07:16:52.569Z,13.50
2018-10-11T07:19:20.838Z,13.60
2018-10-11T07:21:49.056Z,13.60
2018-10-11T07:24:17.310Z,13.60
2018-10-11T07:26:45.608Z,13.70
2018-10-11T07:29:16.154Z,13.70
2018-10-11T07:31:44.436Z,13.80
2018-10-11T07:34:12.736Z,13.80
2018-10-11T07:36:40.951Z,13.90
2018-10-11T07:39:10.587Z,13.90
2018-10-11T07:41:38.852Z,14.00
2018-10-11T07:44:07.889Z,14.00
2018-10-11T07:46:36.220Z,14.10
2018-10-11T07:49:05.413Z,14.10
2018-10-11T07:51:33.623Z,14.20
2018-10-11T07:54:02.643Z,14.30
2018-10-11T07:56:32.393Z,14.30
2018-10-11T07:59:01.307Z,14.30
2018-10-11T08:01:30.856Z,14.40
2018-10-11T08:03:59.608Z,14.40
2018-10-11T08:06:28.047Z,14.50
2018-10-11T08:08:56.364Z,14.70
2018-10-11T08:11:26.001Z,14.70
2018-10-11T08:13:54.436Z,14.80
2018-10-11T08:16:22.887Z,14.80
2018-10-11T08:18:51.550Z,14.90
2018-10-11T08:21:19.950Z,14.90
2018-10-11T08:23:48.282Z,14.90
2018-10-11T08:26:16.822Z,15.00
2018-10-11T08:28:45.091Z,15.00
2018-10-11T08:31:13.413Z,15.10
2018-10-11T08:33:41.653Z,15.20
2018-10-11T08:36:09.877Z,15.20
2018-10-11T08:38:38.172Z,15.30
2018-10-11T08:41:06.384Z,15.40
2018-10-11T08:43:34.600Z,15.40
2018-10-11T08:46:02.864Z,15.40
2018-10-11T08:48:31.099Z,15.50
2018-10-11T08:50:59.359Z,15.50
2018-10-11T08:53:27.635Z,15.60
2018-10-11T08:55:55.898Z,15.70
2018-10-11T08:58:24.073Z,15.70
2018-10-11T09:00:52.236Z,15.90
2018-10-11T09:03:20.530Z,15.90
2018-10-11T09:05:48.667Z,16.00
2018-10-11T09:08:16.893Z,16.10
2018-10-11T09:10:45.130Z,16.20
2018-10-11T09:13:13.334Z,16.20
2018-10-11T09:15:41.672Z,16.20
2018-10-11T09:18:09.726Z,16.30
2018-10-11T09:20:37.944Z,16.40
2018-10-11T09:23:06.358Z,16.50
2018-10-11T09:25:34.517Z,16.50
2018-10-11T09:28:02.854Z,16.60
2018-10-11T09:30:31.613Z,16.70
2018-10-11T09:32:59.708Z,16.70
2018-10-11T09:35:28.137Z,16.80
2018-10-11T09:37:56.450Z,16.80
2018-10-11T09:40:24.688Z,16.90
2018-10-11T09:42:52.901Z,17.00
2018-10-11T09:45:21.218Z,17.10
2018-10-11T09:47:49.418Z,17.10
2018-10-11T09:50:17.633Z,17.20
2018-10-11T09:52:45.980Z,17.30
2018-10-11T09:55:14.244Z,17.30
2018-10-11T09:57:42.521Z,17.40
2018-10-11T10:00:16.482Z,17.50
2018-10-11T10:02:45.984Z,17.60
2018-10-11T10:05:14.274Z,17.60
2018-10-11T10:07:42.501Z,17.70
2018-10-11T10:10:10.738Z,17.80
2018-10-11T10:12:39.040Z,17.80
2018-10-11T10:15:07.254Z,17.80
2018-10-11T10:17:35.877Z,17.90
2018-10-11T10:20:05.546Z,17.90
2018-10-11T10:22:34.130Z,17.90
2018-10-11T10:25:02.328Z,18.00
2018-10-11T10:27:30.558Z,18.10
2018-10-11T10:29:58.839Z,18.10
2018-10-11T10:32:27.060Z,18.10
2018-10-11T10:34:55.506Z,18.10
2018-10-11T10:37:23.760Z,18.20
2018-10-11T10:39:52.001Z,18.30
2018-10-11T10:42:20.237Z,18.30
2018-10-11T10:44:48.574Z,18.40
2018-10-11T10:47:16.775Z,18.50
2018-10-11T10:49:45.218Z,18.50
2018-10-11T10:52:13.545Z,18.60
2018-10-11T10:54:41.767Z,18.60
2018-10-11T10:57:10.314Z,18.70
2018-10-11T10:59:38.585Z,18.80
2018-10-11T11:02:06.989Z,18.80
2018-10-11T11:04:35.180Z,18.90
2018-10-11T11:07:03.432Z,18.90
2018-10-11T11:09:31.705Z,19.00
2018-10-11T11:11:59.917Z,19.00
2018-10-11T11:14:29.174Z,19.10
2018-10-11T11:16:57.742Z,19.10
2018-10-11T11:19:25.988Z,19.20
2018-10-11T11:21:54.785Z,19.20
2018-10-11T11:24:23.063Z,19.30
2018-10-11T11:26:51.342Z,19.30
2018-10-11T11:29:19.627Z,19.30
2018-10-11T11:31:47.875Z,19.30
2018-10-11T11:34:16.512Z,19.30
2018-10-11T11:36:44.807Z,19.50
2018-10-11T11:39:13.095Z,19.50
2018-10-11T11:41:41.413Z,19.60
2018-10-11T11:44:09.753Z,19.60
2018-10-11T11:46:37.997Z,19.70
2018-10-11T11:49:06.232Z,19.70
2018-10-11T11:51:34.635Z,19.80
2018-10-11T11:54:02.881Z,19.80
2018-10-11T11:56:31.080Z,19.80
2018-10-11T11:58:59.372Z,19.80
2018-10-11T12:01:27.645Z,19.90
2018-10-11T12:03:56.033Z,19.80
2018-10-11T12:06:27.917Z,19.90
2018-10-11T12:08:56.244Z,19.90
2018-10-11T12:11:24.593Z,20.00
2018-10-11T12:13:53.720Z,20.00
2018-10-11T12:16:22.366Z,20.00
2018-10-11T12:18:50.637Z,20.10
2018-10-11T12:21:18.889Z,20.20
2018-10-11T12:23:47.425Z,20.20
2018-10-11T12:26:15.673Z,20.20
2018-10-11T12:28:44.122Z,20.20
2018-10-11T12:31:12.264Z,20.10
2018-10-11T12:33:40.534Z,20.10
2018-10-11T12:36:08.769Z,20.20
2018-10-11T12:38:37.384Z,20.20
2018-10-11T12:41:05.637Z,20.20
2018-10-11T12:43:33.953Z,20.20
2018-10-11T12:46:02.240Z,20.30
2018-10-11T12:48:30.706Z,20.20
2018-10-11T12:50:58.982Z,20.30
2018-10-11T12:53:27.280Z,20.30
2018-10-11T12:55:55.613Z,20.30
2018-10-11T12:58:23.929Z,20.30
2018-10-11T13:00:52.220Z,20.40
2018-10-11T13:03:20.497Z,20.40
2018-10-11T13:05:48.721Z,20.40
2018-10-11T13:08:17.003Z,20.40
2018-10-11T13:10:45.270Z,20.40
2018-10-11T13:13:13.571Z,20.40
2018-10-11T13:15:42.222Z,20.40
2018-10-11T13:18:10.028Z,20.40
2018-10-11T13:20:38.240Z,20.50
2018-10-11T13:23:09.776Z,20.50
2018-10-11T13:25:34.745Z,20.50
2018-10-11T13:28:03.306Z,20.50
2018-10-11T13:30:31.536Z,20.50
2018-10-11T13:32:59.785Z,20.50
2018-10-11T13:35:28.024Z,20.50
2018-10-11T13:37:56.548Z,20.50
2018-10-11T13:40:24.812Z,20.50
2018-10-11T13:42:53.021Z,20.50
2018-10-11T13:45:21.890Z,20.60
2018-10-11T13:47:50.154Z,20.60
2018-10-11T13:50:18.558Z,20.60
2018-10-11T13:52:46.782Z,20.60
2018-10-11T13:55:15.799Z,20.60
2018-10-11T13:57:43.334Z,20.60
2018-10-11T14:00:11.611Z,20.60
2018-10-11T14:02:39.824Z,20.60
2018-10-11T14:05:08.120Z,20.60
2018-10-11T14:07:36.322Z,20.60
2018-10-11T14:10:04.524Z,20.60
2018-10-11T14:12:32.736Z,20.60
2018-10-11T14:15:00.940Z,20.60
2018-10-11T14:17:29.218Z,20.50
2018-10-11T14:19:57.362Z,20.50
2018-10-11T14:22:25.633Z,20.50
2018-10-11T14:24:53.893Z,20.50
2018-10-11T14:27:22.128Z,20.50
2018-10-11T14:29:50.374Z,20.50
2018-10-11T14:32:18.600Z,20.50
2018-10-11T14:34:46.875Z,20.40
2018-10-11T14:37:15.717Z,20.50
2018-10-11T14:39:43.913Z,20.40
2018-10-11T14:42:12.340Z,20.40
2018-10-11T14:44:40.526Z,20.40
2018-10-11T14:47:09.676Z,20.40
2018-10-11T14:49:37.969Z,20.40
2018-10-11T14:52:06.600Z,20.40
2018-10-11T14:54:35.333Z,20.40
2018-10-11T14:57:04.533Z,20.40
2018-10-11T14:59:33.465Z,20.40
2018-10-11T15:02:02.944Z,20.50
2018-10-11T15:04:31.479Z,20.40
2018-10-11T15:06:59.684Z,20.40
2018-10-11T15:09:27.914Z,20.30
2018-10-11T15:11:56.163Z,20.40
2018-10-11T15:14:24.627Z,20.30
2018-10-11T15:16:52.864Z,20.30
2018-10-11T15:19:21.149Z,20.30
2018-10-11T15:21:49.456Z,20.20
2018-10-11T15:24:17.672Z,20.20
2018-10-11T15:26:46.062Z,20.10
2018-10-11T15:29:14.337Z,20.10
2018-10-11T15:31:42.790Z,20.00
2018-10-11T15:34:11.045Z,20.00
2018-10-11T15:36:39.254Z,20.00
2018-10-11T15:39:09.075Z,20.00
2018-10-11T15:41:37.968Z,19.90
2018-10-11T15:44:10.852Z,19.90
2018-10-11T15:46:39.471Z,19.90
2018-10-11T15:49:08.359Z,19.80
2018-10-11T15:51:36.830Z,19.80
2018-10-11T15:54:06.308Z,19.70
2018-10-11T15:56:34.596Z,19.60
2018-10-11T15:59:03.059Z,19.50
2018-10-11T16:01:31.432Z,19.50
2018-10-11T16:03:59.785Z,19.40
2018-10-11T16:06:29.186Z,19.30
2018-10-11T16:08:57.774Z,19.30
2018-10-11T16:11:26.101Z,19.20
2018-10-11T16:13:54.902Z,19.10
2018-10-11T16:16:37.547Z,19.00
2018-10-11T16:23:02.899Z,18.90
2018-10-11T16:25:35.339Z,18.70
2018-10-11T16:30:51.312Z,18.50
2018-10-11T16:33:19.829Z,18.40
2018-10-11T16:35:48.212Z,18.40
2018-10-11T16:38:16.799Z,18.30
2018-10-11T16:40:45.041Z,18.20
2018-10-11T16:43:13.441Z,18.10
2018-10-11T17:06:31.470Z,17.70
2018-10-11T17:08:59.967Z,17.20
2018-10-11T17:11:28.381Z,17.20
2018-10-11T17:13:56.736Z,17.10
2018-10-11T17:16:25.254Z,17.00
2018-10-11T17:18:53.804Z,16.90
2018-10-11T17:21:22.059Z,16.90
2018-10-11T17:23:50.857Z,16.90
2018-10-11T17:26:19.177Z,16.80
2018-10-11T17:28:47.540Z,16.80
2018-10-11T17:31:15.950Z,16.80
2018-10-11T17:33:44.352Z,16.70
2018-10-11T17:36:12.708Z,16.70
2018-10-11T17:38:40.957Z,16.70
2018-10-11T17:41:09.218Z,16.60
2018-10-11T17:43:37.537Z,16.60
2018-10-11T17:46:06.071Z,16.50
2018-10-11T17:48:34.383Z,16.40
2018-10-11T17:51:02.805Z,16.50
2018-10-11T17:53:31.651Z,16.40
2018-10-11T17:56:01.235Z,16.30
2018-10-11T17:58:29.870Z,16.30
2018-10-11T18:00:59.754Z,16.30
2018-10-11T18:03:28.270Z,16.20
2018-10-11T18:05:56.905Z,16.10
2018-10-11T18:08:25.689Z,16.10
2018-10-11T18:11:00.512Z,16.00
2018-10-11T18:13:29.888Z,16.00
2018-10-11T18:16:00.224Z,16.00
2018-10-11T18:18:28.896Z,15.90
2018-10-11T18:20:57.283Z,15.90
2018-10-11T18:23:26.003Z,15.90
2018-10-11T18:25:55.048Z,15.80
2018-10-11T18:28:24.204Z,15.80
2018-10-11T18:30:52.791Z,15.80
2018-10-11T18:33:21.261Z,15.80
2018-10-11T18:35:49.688Z,15.70
2018-10-11T18:38:18.134Z,15.70
2018-10-11T18:40:46.512Z,15.70
2018-10-11T18:43:14.801Z,15.70
2018-10-11T18:45:43.245Z,15.60
2018-10-11T18:48:11.563Z,15.60
2018-10-11T18:50:39.813Z,15.50
2018-10-11T18:53:08.160Z,15.50
2018-10-11T18:55:36.490Z,15.40
2018-10-11T18:58:04.736Z,15.40
2018-10-11T19:00:32.990Z,15.40
2018-10-11T19:03:01.158Z,15.40
2018-10-11T19:05:29.381Z,15.30
2018-10-11T19:07:57.627Z,15.30
2018-10-11T19:10:25.787Z,15.20
2018-10-11T19:12:54.198Z,15.20
2018-10-11T19:15:22.569Z,15.20
2018-10-11T19:17:50.788Z,15.20
2018-10-11T19:20:19.009Z,15.10
2018-10-11T19:22:47.369Z,15.10
2018-10-11T19:25:15.755Z,15.00
2018-10-11T19:27:44.001Z,15.00
2018-10-11T19:30:12.501Z,15.00
2018-10-11T19:32:40.937Z,14.90
2018-10-11T19:35:09.436Z,14.90
2018-10-11T19:37:37.945Z,14.80
2018-10-11T19:40:06.230Z,14.80
2018-10-11T19:42:34.846Z,14.70
2018-10-11T19:45:03.160Z,14.70
2018-10-11T19:47:31.477Z,14.60
2018-10-11T19:49:59.749Z,14.50
2018-10-11T19:52:28.107Z,14.40
2018-10-11T19:54:56.399Z,14.40
2018-10-11T19:57:24.679Z,14.30
2018-10-11T19:59:54.058Z,14.30
2018-10-11T20:02:22.355Z,14.20
2018-10-11T20:04:50.694Z,14.20
2018-10-11T20:07:18.995Z,14.10
2018-10-11T20:09:47.385Z,14.10
2018-10-11T20:12:16.404Z,14.00
2018-10-11T20:14:44.709Z,14.00
2018-10-11T20:17:18.290Z,14.00
2018-10-11T20:19:46.643Z,13.90
2018-10-11T20:22:14.940Z,13.90
2018-10-11T20:27:20.921Z,13.80
2018-10-11T20:29:49.429Z,13.80
2018-10-11T20:32:17.759Z,13.70
2018-10-11T20:34:46.060Z,13.70
2018-10-11T20:37:14.802Z,13.70
2018-10-11T20:39:45.250Z,13.60
2018-10-11T20:42:14.299Z,13.60
2018-10-11T20:44:42.804Z,13.60
2018-10-11T20:47:11.156Z,13.50
2018-10-11T20:49:40.613Z,13.50
2018-10-11T20:52:10.366Z,13.50
2018-10-11T20:54:38.842Z,13.40
2018-10-11T20:57:07.408Z,13.40
2018-10-11T20:59:37.487Z,13.40
2018-10-11T21:02:06.726Z,13.40
2018-10-11T21:04:35.172Z,13.40
2018-10-11T21:07:04.588Z,13.40
2018-10-11T21:09:32.818Z,13.30
2018-10-11T21:12:01.325Z,13.30
2018-10-11T21:14:29.450Z,13.20
2018-10-11T21:16:57.835Z,13.20
2018-10-11T21:19:26.277Z,13.20
2018-10-11T21:21:54.622Z,13.20
2018-10-11T21:24:22.821Z,13.20
2018-10-11T21:26:51.286Z,13.20
2018-10-11T21:29:19.718Z,13.20
2018-10-11T21:31:47.965Z,13.10
2018-10-11T21:34:16.189Z,13.10
2018-10-11T21:36:44.462Z,13.10
2018-10-11T21:39:13.825Z,13.00
2018-10-11T21:41:42.330Z,13.00
2018-10-11T21:44:11.845Z,13.00
2018-10-11T21:46:40.251Z,13.10
2018-10-11T21:49:08.469Z,13.00
2018-10-11T21:51:37.462Z,13.00
2018-10-11T21:54:08.191Z,12.90
2018-10-11T21:56:36.540Z,12.80
2018-10-11T21:59:04.939Z,12.90
2018-10-11T22:01:33.114Z,12.90
2018-10-11T22:04:01.245Z,12.80
2018-10-11T22:06:29.427Z,12.80
2018-10-11T22:08:57.910Z,12.80
2018-10-11T22:11:26.124Z,12.80
2018-10-11T22:13:54.392Z,12.70
2018-10-11T22:16:22.533Z,12.60
2018-10-11T22:18:50.754Z,12.60
2018-10-11T22:21:19.019Z,12.60
2018-10-11T22:23:47.411Z,12.50
2018-10-11T22:26:15.605Z,12.50
2018-10-11T22:28:43.873Z,12.50
2018-10-11T22:31:13.222Z,12.50
2018-10-11T22:33:42.175Z,12.50
2018-10-11T22:36:11.205Z,12.40
2018-10-11T22:38:39.812Z,12.40
2018-10-11T22:41:08.369Z,12.30
2018-10-11T22:43:36.545Z,12.30
2018-10-11T22:46:04.925Z,12.30
2018-10-11T22:48:33.080Z,12.20
2018-10-11T22:51:01.405Z,12.20
2018-10-11T22:53:29.596Z,12.20
2018-10-11T22:55:57.918Z,12.30
2018-10-11T22:58:26.101Z,12.30
2018-10-11T23:00:54.428Z,12.30
2018-10-11T23:03:22.963Z,12.30
2018-10-11T23:05:51.244Z,12.40
2018-10-11T23:08:19.496Z,12.30
2018-10-11T23:10:47.688Z,12.20
2018-10-11T23:13:15.888Z,12.20
2018-10-11T23:15:44.119Z,12.20
2018-10-11T23:18:12.265Z,12.20
2018-10-11T23:20:40.510Z,12.20
2018-10-11T23:23:08.765Z,12.20
2018-10-11T23:25:36.983Z,12.20
2018-10-11T23:28:05.384Z,12.20
2018-10-11T23:30:33.565Z,12.10
2018-10-11T23:33:01.815Z,12.10
2018-10-11T23:35:30.069Z,12.10
2018-10-11T23:37:58.264Z,12.10
2018-10-11T23:40:26.812Z,12.20
2018-10-11T23:42:55.013Z,12.20
2018-10-11T23:45:23.206Z,12.10
2018-10-11T23:47:51.413Z,12.10
2018-10-11T23:50:19.647Z,12.00
2018-10-11T23:52:47.846Z,12.10
2018-10-11T23:55:16.073Z,12.10
2018-10-11T23:57:44.972Z,12.10
